sensor_id;sensor_type;location;lat;lon;timestamp;P1;durP1;ratioP1;P2;durP2;ratioP2
40256;SDS011;25977;45.462;9.210;2024-03-06T00:01:04;0.95;;;0.85;;
40256;SDS011;25977;45.462;9.210;2024-03-06T00:03:30;0.73;;;0.68;;
40256;SDS011;25977;45.462;9.210;2024-03-06T00:05:56;0.75;;;0.45;;
40256;SDS011;25977;45.462;9.210;2024-03-06T00:08:21;0.82;;;0.50;;
40256;SDS011;25977;45.462;9.210;2024-03-06T00:10:47;1.38;;;0.60;;
40256;SDS011;25977;45.462;9.210;2024-03-06T00:13:13;1.90;;;0.50;;
40256;SDS011;25977;45.462;9.210;2024-03-06T00:15:39;0.50;;;0.50;;
40256;SDS011;25977;45.462;9.210;2024-03-06T00:18:04;0.40;;;0.40;;
40256;SDS011;25977;45.462;9.210;2024-03-06T00:20:30;0.85;;;0.73;;
40256;SDS011;25977;45.462;9.210;2024-03-06T00:22:56;0.32;;;0.32;;
40256;SDS011;25977;45.462;9.210;2024-03-06T00:25:24;1.98;;;0.75;;
40256;SDS011;25977;45.462;9.210;2024-03-06T00:27:50;0.60;;;0.60;;
40256;SDS011;25977;45.462;9.210;2024-03-06T00:30:15;0.70;;;0.70;;
40256;SDS011;25977;45.462;9.210;2024-03-06T00:32:41;0.63;;;0.63;;
40256;SDS011;25977;45.462;9.210;2024-03-06T00:35:07;0.98;;;0.70;;
40256;SDS011;25977;45.462;9.210;2024-03-06T00:37:33;1.23;;;0.40;;
40256;SDS011;25977;45.462;9.210;2024-03-06T00:39:59;0.65;;;0.60;;
40256;SDS011;25977;45.462;9.210;2024-03-06T00:42:24;2.17;;;0.95;;
40256;SDS011;25977;45.462;9.210;2024-03-06T00:44:50;0.35;;;0.35;;
40256;SDS011;25977;45.462;9.210;2024-03-06T00:47:16;0.55;;;0.55;;
40256;SDS011;25977;45.462;9.210;2024-03-06T00:49:41;0.73;;;0.73;;
40256;SDS011;25977;45.462;9.210;2024-03-06T00:52:07;0.65;;;0.65;;
40256;SDS011;25977;45.462;9.210;2024-03-06T00:54:34;0.40;;;0.40;;
40256;SDS011;25977;45.462;9.210;2024-03-06T00:57:00;0.50;;;0.50;;
40256;SDS011;25977;45.462;9.210;2024-03-06T00:59:26;1.17;;;0.82;;
40256;SDS011;25977;45.462;9.210;2024-03-06T01:01:53;1.42;;;0.60;;
40256;SDS011;25977;45.462;9.210;2024-03-06T01:04:21;1.75;;;0.65;;
40256;SDS011;25977;45.462;9.210;2024-03-06T01:06:47;0.90;;;0.75;;
40256;SDS011;25977;45.462;9.210;2024-03-06T01:09:13;0.50;;;0.50;;
40256;SDS011;25977;45.462;9.210;2024-03-06T01:11:38;1.98;;;0.68;;
40256;SDS011;25977;45.462;9.210;2024-03-06T01:14:04;3.33;;;0.80;;
40256;SDS011;25977;45.462;9.210;2024-03-06T01:16:30;1.17;;;0.77;;
40256;SDS011;25977;45.462;9.210;2024-03-06T01:18:56;0.65;;;0.30;;
40256;SDS011;25977;45.462;9.210;2024-03-06T01:21:21;1.35;;;0.38;;
40256;SDS011;25977;45.462;9.210;2024-03-06T01:23:47;0.60;;;0.60;;
40256;SDS011;25977;45.462;9.210;2024-03-06T01:26:13;0.80;;;0.57;;
40256;SDS011;25977;45.462;9.210;2024-03-06T01:28:38;0.35;;;0.35;;
40256;SDS011;25977;45.462;9.210;2024-03-06T01:31:04;0.68;;;0.68;;
40256;SDS011;25977;45.462;9.210;2024-03-06T01:33:30;0.40;;;0.40;;
40256;SDS011;25977;45.462;9.210;2024-03-06T01:35:56;0.20;;;0.20;;
40256;SDS011;25977;45.462;9.210;2024-03-06T01:38:21;0.55;;;0.40;;
40256;SDS011;25977;45.462;9.210;2024-03-06T01:40:47;0.30;;;0.30;;
40256;SDS011;25977;45.462;9.210;2024-03-06T01:43:46;0.40;;;0.40;;
40256;SDS011;25977;45.462;9.210;2024-03-06T01:46:05;0.40;;;0.40;;
40256;SDS011;25977;45.462;9.210;2024-03-06T01:48:31;0.30;;;0.30;;
40256;SDS011;25977;45.462;9.210;2024-03-06T01:50:57;0.38;;;0.38;;
40256;SDS011;25977;45.462;9.210;2024-03-06T01:53:25;0.60;;;0.60;;
40256;SDS011;25977;45.462;9.210;2024-03-06T01:55:54;0.40;;;0.40;;
40256;SDS011;25977;45.462;9.210;2024-03-06T01:58:20;0.30;;;0.30;;
40256;SDS011;25977;45.462;9.210;2024-03-06T02:00:46;0.40;;;0.40;;
40256;SDS011;25977;45.462;9.210;2024-03-06T02:03:14;1.08;;;0.40;;
40256;SDS011;25977;45.462;9.210;2024-03-06T02:05:40;0.60;;;0.60;;
40256;SDS011;25977;45.462;9.210;2024-03-06T02:08:06;0.60;;;0.60;;
40256;SDS011;25977;45.462;9.210;2024-03-06T02:10:33;0.40;;;0.40;;
40256;SDS011;25977;45.462;9.210;2024-03-06T02:12:59;0.52;;;0.50;;
40256;SDS011;25977;45.462;9.210;2024-03-06T02:15:25;0.40;;;0.40;;
40256;SDS011;25977;45.462;9.210;2024-03-06T02:17:51;1.45;;;0.88;;
40256;SDS011;25977;45.462;9.210;2024-03-06T02:20:24;1.17;;;0.75;;
40256;SDS011;25977;45.462;9.210;2024-03-06T02:22:50;1.17;;;1.08;;
40256;SDS011;25977;45.462;9.210;2024-03-06T02:25:16;1.33;;;1.23;;
40256;SDS011;25977;45.462;9.210;2024-03-06T02:27:44;0.77;;;0.77;;
40256;SDS011;25977;45.462;9.210;2024-03-06T02:30:09;0.70;;;0.70;;
40256;SDS011;25977;45.462;9.210;2024-03-06T02:32:36;0.50;;;0.50;;
40256;SDS011;25977;45.462;9.210;2024-03-06T02:35:02;0.90;;;0.65;;
40256;SDS011;25977;45.462;9.210;2024-03-06T02:37:33;0.97;;;0.97;;
40256;SDS011;25977;45.462;9.210;2024-03-06T02:40:00;0.50;;;0.50;;
40256;SDS011;25977;45.462;9.210;2024-03-06T02:42:27;0.85;;;0.85;;
40256;SDS011;25977;45.462;9.210;2024-03-06T02:44:53;0.77;;;0.77;;
40256;SDS011;25977;45.462;9.210;2024-03-06T02:47:18;1.58;;;0.60;;
40256;SDS011;25977;45.462;9.210;2024-03-06T02:49:44;0.55;;;0.55;;
40256;SDS011;25977;45.462;9.210;2024-03-06T02:52:10;0.75;;;0.68;;
40256;SDS011;25977;45.462;9.210;2024-03-06T02:54:35;1.30;;;0.60;;
40256;SDS011;25977;45.462;9.210;2024-03-06T02:57:01;1.35;;;0.70;;
40256;SDS011;25977;45.462;9.210;2024-03-06T02:59:27;3.38;;;1.05;;
40256;SDS011;25977;45.462;9.210;2024-03-06T03:01:52;0.52;;;0.52;;
40256;SDS011;25977;45.462;9.210;2024-03-06T03:04:18;1.95;;;0.93;;
40256;SDS011;25977;45.462;9.210;2024-03-06T03:06:44;0.70;;;0.70;;
40256;SDS011;25977;45.462;9.210;2024-03-06T03:09:09;0.68;;;0.60;;
40256;SDS011;25977;45.462;9.210;2024-03-06T03:11:37;0.77;;;0.77;;
40256;SDS011;25977;45.462;9.210;2024-03-06T03:14:03;0.57;;;0.57;;
40256;SDS011;25977;45.462;9.210;2024-03-06T03:16:29;0.73;;;0.73;;
40256;SDS011;25977;45.462;9.210;2024-03-06T03:18:57;0.88;;;0.88;;
40256;SDS011;25977;45.462;9.210;2024-03-06T03:21:23;0.47;;;0.47;;
40256;SDS011;25977;45.462;9.210;2024-03-06T03:23:49;0.95;;;0.95;;
40256;SDS011;25977;45.462;9.210;2024-03-06T03:26:15;0.50;;;0.50;;
40256;SDS011;25977;45.462;9.210;2024-03-06T03:28:40;0.57;;;0.57;;
40256;SDS011;25977;45.462;9.210;2024-03-06T03:31:07;0.60;;;0.60;;
40256;SDS011;25977;45.462;9.210;2024-03-06T03:33:34;0.60;;;0.60;;
40256;SDS011;25977;45.462;9.210;2024-03-06T03:36:06;0.70;;;0.70;;
40256;SDS011;25977;45.462;9.210;2024-03-06T03:38:33;2.10;;;0.90;;
40256;SDS011;25977;45.462;9.210;2024-03-06T03:41:06;0.70;;;0.70;;
40256;SDS011;25977;45.462;9.210;2024-03-06T03:43:38;0.60;;;0.60;;
40256;SDS011;25977;45.462;9.210;2024-03-06T03:46:04;0.40;;;0.40;;
40256;SDS011;25977;45.462;9.210;2024-03-06T03:48:31;1.23;;;1.02;;
40256;SDS011;25977;45.462;9.210;2024-03-06T03:51:01;0.77;;;0.77;;
40256;SDS011;25977;45.462;9.210;2024-03-06T03:53:30;0.63;;;0.63;;
40256;SDS011;25977;45.462;9.210;2024-03-06T03:55:56;0.68;;;0.68;;
40256;SDS011;25977;45.462;9.210;2024-03-06T03:58:22;1.70;;;0.80;;
40256;SDS011;25977;45.462;9.210;2024-03-06T04:00:48;1.25;;;1.15;;
40256;SDS011;25977;45.462;9.210;2024-03-06T04:03:17;1.75;;;1.30;;
40256;SDS011;25977;45.462;9.210;2024-03-06T04:05:44;1.05;;;1.05;;
40256;SDS011;25977;45.462;9.210;2024-03-06T04:08:10;1.25;;;1.23;;
40256;SDS011;25977;45.462;9.210;2024-03-06T04:10:35;2.25;;;1.48;;
40256;SDS011;25977;45.462;9.210;2024-03-06T04:13:01;1.33;;;1.33;;
40256;SDS011;25977;45.462;9.210;2024-03-06T04:15:28;1.50;;;1.40;;
40256;SDS011;25977;45.462;9.210;2024-03-06T04:17:54;2.80;;;1.33;;
40256;SDS011;25977;45.462;9.210;2024-03-06T04:20:19;1.95;;;1.85;;
40256;SDS011;25977;45.462;9.210;2024-03-06T04:22:45;1.88;;;1.77;;
40256;SDS011;25977;45.462;9.210;2024-03-06T04:25:12;1.77;;;1.67;;
40256;SDS011;25977;45.462;9.210;2024-03-06T04:27:39;1.98;;;1.88;;
40256;SDS011;25977;45.462;9.210;2024-03-06T04:30:05;1.98;;;1.88;;
40256;SDS011;25977;45.462;9.210;2024-03-06T04:32:31;2.10;;;2.00;;
40256;SDS011;25977;45.462;9.210;2024-03-06T04:34:57;1.70;;;1.60;;
40256;SDS011;25977;45.462;9.210;2024-03-06T04:37:23;2.00;;;1.90;;
40256;SDS011;25977;45.462;9.210;2024-03-06T04:39:48;2.40;;;2.30;;
40256;SDS011;25977;45.462;9.210;2024-03-06T04:42:14;2.30;;;2.20;;
40256;SDS011;25977;45.462;9.210;2024-03-06T04:44:40;2.10;;;2.00;;
40256;SDS011;25977;45.462;9.210;2024-03-06T04:47:07;2.55;;;2.17;;
40256;SDS011;25977;45.462;9.210;2024-03-06T04:49:33;2.30;;;2.20;;
40256;SDS011;25977;45.462;9.210;2024-03-06T04:51:59;2.22;;;2.13;;
40256;SDS011;25977;45.462;9.210;2024-03-06T04:54:26;2.45;;;2.25;;
40256;SDS011;25977;45.462;9.210;2024-03-06T04:56:52;2.33;;;2.20;;
40256;SDS011;25977;45.462;9.210;2024-03-06T04:59:17;2.90;;;2.70;;
40256;SDS011;25977;45.462;9.210;2024-03-06T05:01:43;3.13;;;2.92;;
40256;SDS011;25977;45.462;9.210;2024-03-06T05:04:10;3.15;;;2.95;;
40256;SDS011;25977;45.462;9.210;2024-03-06T05:06:36;2.45;;;2.35;;
40256;SDS011;25977;45.462;9.210;2024-03-06T05:09:02;2.95;;;2.80;;
40256;SDS011;25977;45.462;9.210;2024-03-06T05:11:29;4.03;;;3.58;;
40256;SDS011;25977;45.462;9.210;2024-03-06T05:13:57;3.88;;;3.58;;
40256;SDS011;25977;45.462;9.210;2024-03-06T05:16:24;3.80;;;3.50;;
40256;SDS011;25977;45.462;9.210;2024-03-06T05:18:51;3.42;;;3.22;;
40256;SDS011;25977;45.462;9.210;2024-03-06T05:21:17;3.45;;;3.25;;
40256;SDS011;25977;45.462;9.210;2024-03-06T05:23:43;3.05;;;2.83;;
40256;SDS011;25977;45.462;9.210;2024-03-06T05:26:09;3.00;;;2.80;;
40256;SDS011;25977;45.462;9.210;2024-03-06T05:28:35;3.58;;;3.28;;
40256;SDS011;25977;45.462;9.210;2024-03-06T05:31:00;3.28;;;2.83;;
40256;SDS011;25977;45.462;9.210;2024-03-06T05:33:38;2.83;;;2.70;;
40256;SDS011;25977;45.462;9.210;2024-03-06T05:36:04;3.30;;;2.38;;
40256;SDS011;25977;45.462;9.210;2024-03-06T05:38:30;2.25;;;2.15;;
40256;SDS011;25977;45.462;9.210;2024-03-06T05:40:56;4.18;;;2.10;;
40256;SDS011;25977;45.462;9.210;2024-03-06T05:43:21;3.42;;;2.28;;
40256;SDS011;25977;45.462;9.210;2024-03-06T05:45:47;1.77;;;1.63;;
40256;SDS011;25977;45.462;9.210;2024-03-06T05:48:13;2.70;;;1.75;;
40256;SDS011;25977;45.462;9.210;2024-03-06T05:50:38;2.35;;;1.05;;
40256;SDS011;25977;45.462;9.210;2024-03-06T05:53:04;1.50;;;1.40;;
40256;SDS011;25977;45.462;9.210;2024-03-06T05:55:29;2.55;;;2.13;;
40256;SDS011;25977;45.462;9.210;2024-03-06T05:57:55;2.40;;;2.20;;
40256;SDS011;25977;45.462;9.210;2024-03-06T06:00:21;2.00;;;1.80;;
40256;SDS011;25977;45.462;9.210;2024-03-06T06:02:47;2.50;;;2.40;;
40256;SDS011;25977;45.462;9.210;2024-03-06T06:05:13;3.08;;;2.28;;
40256;SDS011;25977;45.462;9.210;2024-03-06T06:07:39;1.98;;;1.88;;
40256;SDS011;25977;45.462;9.210;2024-03-06T06:10:04;3.22;;;2.33;;
40256;SDS011;25977;45.462;9.210;2024-03-06T06:12:35;1.73;;;1.63;;
40256;SDS011;25977;45.462;9.210;2024-03-06T06:15:00;2.00;;;1.90;;
40256;SDS011;25977;45.462;9.210;2024-03-06T06:17:26;1.80;;;1.70;;
40256;SDS011;25977;45.462;9.210;2024-03-06T06:19:52;2.03;;;1.92;;
40256;SDS011;25977;45.462;9.210;2024-03-06T06:22:17;2.40;;;1.85;;
40256;SDS011;25977;45.462;9.210;2024-03-06T06:24:43;2.30;;;2.20;;
40256;SDS011;25977;45.462;9.210;2024-03-06T06:27:10;5.60;;;2.17;;
40256;SDS011;25977;45.462;9.210;2024-03-06T06:29:36;1.70;;;1.60;;
40256;SDS011;25977;45.462;9.210;2024-03-06T06:32:02;6.50;;;2.47;;
40256;SDS011;25977;45.462;9.210;2024-03-06T06:34:27;2.15;;;2.03;;
40256;SDS011;25977;45.462;9.210;2024-03-06T06:36:53;1.48;;;1.38;;
40256;SDS011;25977;45.462;9.210;2024-03-06T06:39:19;4.30;;;1.52;;
40256;SDS011;25977;45.462;9.210;2024-03-06T06:41:44;1.90;;;1.70;;
40256;SDS011;25977;45.462;9.210;2024-03-06T06:44:10;3.65;;;1.58;;
40256;SDS011;25977;45.462;9.210;2024-03-06T06:46:36;1.60;;;1.50;;
40256;SDS011;25977;45.462;9.210;2024-03-06T06:49:02;1.52;;;1.42;;
40256;SDS011;25977;45.462;9.210;2024-03-06T06:51:28;2.22;;;1.52;;
40256;SDS011;25977;45.462;9.210;2024-03-06T06:53:54;2.08;;;1.80;;
40256;SDS011;25977;45.462;9.210;2024-03-06T06:56:20;1.60;;;1.50;;
40256;SDS011;25977;45.462;9.210;2024-03-06T06:58:49;2.00;;;1.50;;
40256;SDS011;25977;45.462;9.210;2024-03-06T07:01:15;4.68;;;1.25;;
40256;SDS011;25977;45.462;9.210;2024-03-06T07:03:43;1.90;;;1.00;;
40256;SDS011;25977;45.462;9.210;2024-03-06T07:06:09;2.20;;;1.67;;
40256;SDS011;25977;45.462;9.210;2024-03-06T07:08:36;1.38;;;1.27;;
40256;SDS011;25977;45.462;9.210;2024-03-06T07:11:02;1.77;;;1.15;;
40256;SDS011;25977;45.462;9.210;2024-03-06T07:13:28;1.33;;;0.80;;
40256;SDS011;25977;45.462;9.210;2024-03-06T07:15:53;1.08;;;0.88;;
40256;SDS011;25977;45.462;9.210;2024-03-06T07:18:19;1.85;;;0.70;;
40256;SDS011;25977;45.462;9.210;2024-03-06T07:20:45;1.00;;;0.80;;
40256;SDS011;25977;45.462;9.210;2024-03-06T07:23:12;1.73;;;0.65;;
40256;SDS011;25977;45.462;9.210;2024-03-06T07:25:38;0.60;;;0.60;;
40256;SDS011;25977;45.462;9.210;2024-03-06T07:28:04;2.05;;;0.63;;
40256;SDS011;25977;45.462;9.210;2024-03-06T07:30:30;0.43;;;0.43;;
40256;SDS011;25977;45.462;9.210;2024-03-06T07:32:56;1.25;;;0.80;;
40256;SDS011;25977;45.462;9.210;2024-03-06T07:35:22;0.60;;;0.60;;
40256;SDS011;25977;45.462;9.210;2024-03-06T07:37:48;1.20;;;1.00;;
40256;SDS011;25977;45.462;9.210;2024-03-06T07:40:14;1.98;;;0.88;;
40256;SDS011;25977;45.462;9.210;2024-03-06T07:42:40;2.03;;;1.17;;
40256;SDS011;25977;45.462;9.210;2024-03-06T07:45:05;3.22;;;1.65;;
40256;SDS011;25977;45.462;9.210;2024-03-06T07:47:34;5.75;;;1.10;;
40256;SDS011;25977;45.462;9.210;2024-03-06T07:50:02;1.67;;;1.13;;
40256;SDS011;25977;45.462;9.210;2024-03-06T07:52:31;5.25;;;1.05;;
40256;SDS011;25977;45.462;9.210;2024-03-06T07:54:57;0.95;;;0.90;;
40256;SDS011;25977;45.462;9.210;2024-03-06T07:57:23;1.27;;;1.00;;
40256;SDS011;25977;45.462;9.210;2024-03-06T07:59:49;1.33;;;1.05;;
40256;SDS011;25977;45.462;9.210;2024-03-06T08:02:17;2.22;;;1.00;;
40256;SDS011;25977;45.462;9.210;2024-03-06T08:04:43;3.58;;;1.35;;
40256;SDS011;25977;45.462;9.210;2024-03-06T08:07:09;1.08;;;0.98;;
40256;SDS011;25977;45.462;9.210;2024-03-06T08:09:34;3.40;;;1.15;;
40256;SDS011;25977;45.462;9.210;2024-03-06T08:12:00;3.00;;;0.70;;
40256;SDS011;25977;45.462;9.210;2024-03-06T08:14:26;0.68;;;0.68;;
40256;SDS011;25977;45.462;9.210;2024-03-06T08:16:52;2.22;;;1.25;;
40256;SDS011;25977;45.462;9.210;2024-03-06T08:19:19;4.38;;;1.17;;
40256;SDS011;25977;45.462;9.210;2024-03-06T08:21:45;2.15;;;1.35;;
40256;SDS011;25977;45.462;9.210;2024-03-06T08:24:11;1.50;;;1.40;;
40256;SDS011;25977;45.462;9.210;2024-03-06T08:26:37;1.55;;;1.45;;
40256;SDS011;25977;45.462;9.210;2024-03-06T08:29:03;2.17;;;1.13;;
40256;SDS011;25977;45.462;9.210;2024-03-06T08:31:29;3.08;;;1.42;;
40256;SDS011;25977;45.462;9.210;2024-03-06T08:33:56;2.25;;;2.08;;
40256;SDS011;25977;45.462;9.210;2024-03-06T08:36:21;5.03;;;1.27;;
40256;SDS011;25977;45.462;9.210;2024-03-06T08:38:49;1.70;;;1.60;;
40256;SDS011;25977;45.462;9.210;2024-03-06T08:41:14;1.27;;;1.13;;
40256;SDS011;25977;45.462;9.210;2024-03-06T08:43:40;1.55;;;1.40;;
40256;SDS011;25977;45.462;9.210;2024-03-06T08:46:06;4.03;;;1.55;;
40256;SDS011;25977;45.462;9.210;2024-03-06T08:48:32;1.23;;;1.13;;
40256;SDS011;25977;45.462;9.210;2024-03-06T08:50:57;1.45;;;1.35;;
40256;SDS011;25977;45.462;9.210;2024-03-06T08:53:23;3.63;;;1.52;;
40256;SDS011;25977;45.462;9.210;2024-03-06T08:55:49;2.17;;;0.80;;
40256;SDS011;25977;45.462;9.210;2024-03-06T08:58:15;1.70;;;1.60;;
40256;SDS011;25977;45.462;9.210;2024-03-06T09:00:40;1.70;;;1.10;;
40256;SDS011;25977;45.462;9.210;2024-03-06T09:03:06;2.20;;;1.30;;
40256;SDS011;25977;45.462;9.210;2024-03-06T09:05:32;1.55;;;1.45;;
40256;SDS011;25977;45.462;9.210;2024-03-06T09:07:57;2.53;;;1.52;;
40256;SDS011;25977;45.462;9.210;2024-03-06T09:10:23;3.05;;;1.70;;
40256;SDS011;25977;45.462;9.210;2024-03-06T09:12:49;5.05;;;1.35;;
40256;SDS011;25977;45.462;9.210;2024-03-06T09:15:15;2.25;;;2.05;;
40256;SDS011;25977;45.462;9.210;2024-03-06T09:17:41;1.63;;;1.52;;
40256;SDS011;25977;45.462;9.210;2024-03-06T09:20:07;2.40;;;1.52;;
40256;SDS011;25977;45.462;9.210;2024-03-06T09:22:37;2.05;;;1.85;;
40256;SDS011;25977;45.462;9.210;2024-03-06T09:25:04;2.22;;;1.38;;
40256;SDS011;25977;45.462;9.210;2024-03-06T09:27:30;1.75;;;1.63;;
40256;SDS011;25977;45.462;9.210;2024-03-06T09:29:57;2.05;;;1.60;;
40256;SDS011;25977;45.462;9.210;2024-03-06T09:32:22;2.50;;;2.33;;
40256;SDS011;25977;45.462;9.210;2024-03-06T09:34:48;2.55;;;1.73;;
40256;SDS011;25977;45.462;9.210;2024-03-06T09:37:14;2.33;;;2.13;;
40256;SDS011;25977;45.462;9.210;2024-03-06T09:39:40;1.98;;;1.75;;
40256;SDS011;25977;45.462;9.210;2024-03-06T09:42:06;2.03;;;1.92;;
40256;SDS011;25977;45.462;9.210;2024-03-06T09:44:32;2.72;;;1.83;;
40256;SDS011;25977;45.462;9.210;2024-03-06T09:46:59;6.15;;;2.08;;
40256;SDS011;25977;45.462;9.210;2024-03-06T09:49:28;3.10;;;1.90;;
40256;SDS011;25977;45.462;9.210;2024-03-06T09:51:55;4.68;;;2.25;;
40256;SDS011;25977;45.462;9.210;2024-03-06T09:54:23;3.20;;;2.30;;
40256;SDS011;25977;45.462;9.210;2024-03-06T09:56:51;2.60;;;1.70;;
40256;SDS011;25977;45.462;9.210;2024-03-06T09:59:17;2.47;;;2.28;;
40256;SDS011;25977;45.462;9.210;2024-03-06T10:01:50;2.97;;;2.78;;
40256;SDS011;25977;45.462;9.210;2024-03-06T10:04:23;3.45;;;2.10;;
40256;SDS011;25977;45.462;9.210;2024-03-06T10:06:50;3.75;;;3.40;;
40256;SDS011;25977;45.462;9.210;2024-03-06T10:09:19;5.00;;;4.60;;
40256;SDS011;25977;45.462;9.210;2024-03-06T10:11:46;8.00;;;5.10;;
40256;SDS011;25977;45.462;9.210;2024-03-06T10:14:12;7.18;;;4.75;;
40256;SDS011;25977;45.462;9.210;2024-03-06T10:16:51;6.30;;;4.38;;
40256;SDS011;25977;45.462;9.210;2024-03-06T10:19:24;4.25;;;3.85;;
40256;SDS011;25977;45.462;9.210;2024-03-06T10:22:01;3.97;;;3.55;;
40256;SDS011;25977;45.462;9.210;2024-03-06T10:24:33;6.72;;;4.88;;
40256;SDS011;25977;45.462;9.210;2024-03-06T10:26:59;6.65;;;4.93;;
40256;SDS011;25977;45.462;9.210;2024-03-06T10:29:26;7.43;;;5.90;;
40256;SDS011;25977;45.462;9.210;2024-03-06T10:31:54;6.95;;;4.40;;
40256;SDS011;25977;45.462;9.210;2024-03-06T10:34:21;9.32;;;3.83;;
40256;SDS011;25977;45.462;9.210;2024-03-06T10:36:58;7.18;;;4.72;;
40256;SDS011;25977;45.462;9.210;2024-03-06T10:39:32;8.18;;;4.72;;
40256;SDS011;25977;45.462;9.210;2024-03-06T10:42:03;8.18;;;5.68;;
40256;SDS011;25977;45.462;9.210;2024-03-06T10:44:33;3.83;;;3.53;;
40256;SDS011;25977;45.462;9.210;2024-03-06T10:47:02;6.82;;;4.07;;
40256;SDS011;25977;45.462;9.210;2024-03-06T10:49:31;6.47;;;3.83;;
40256;SDS011;25977;45.462;9.210;2024-03-06T10:52:00;4.65;;;3.50;;
40256;SDS011;25977;45.462;9.210;2024-03-06T10:54:28;5.22;;;3.97;;
40256;SDS011;25977;45.462;9.210;2024-03-06T10:56:55;4.60;;;4.07;;
40256;SDS011;25977;45.462;9.210;2024-03-06T10:59:21;10.52;;;5.30;;
40256;SDS011;25977;45.462;9.210;2024-03-06T11:01:52;7.07;;;4.35;;
40256;SDS011;25977;45.462;9.210;2024-03-06T11:04:19;6.00;;;4.78;;
40256;SDS011;25977;45.462;9.210;2024-03-06T11:06:45;5.10;;;4.68;;
40256;SDS011;25977;45.462;9.210;2024-03-06T11:09:11;5.47;;;4.38;;
40256;SDS011;25977;45.462;9.210;2024-03-06T11:11:49;6.65;;;4.13;;
40256;SDS011;25977;45.462;9.210;2024-03-06T11:14:16;8.10;;;5.07;;
40256;SDS011;25977;45.462;9.210;2024-03-06T11:19:28;7.57;;;4.03;;
40256;SDS011;25977;45.462;9.210;2024-03-06T11:21:55;4.60;;;4.20;;
40256;SDS011;25977;45.462;9.210;2024-03-06T11:24:22;4.30;;;3.90;;
40256;SDS011;25977;45.462;9.210;2024-03-06T11:26:49;8.38;;;4.88;;
40256;SDS011;25977;45.462;9.210;2024-03-06T11:33:00;5.05;;;4.20;;
40256;SDS011;25977;45.462;9.210;2024-03-06T11:35:29;8.45;;;5.40;;
40256;SDS011;25977;45.462;9.210;2024-03-06T11:37:55;4.10;;;3.75;;
40256;SDS011;25977;45.462;9.210;2024-03-06T11:40:23;6.80;;;3.83;;
40256;SDS011;25977;45.462;9.210;2024-03-06T11:42:49;7.15;;;3.97;;
40256;SDS011;25977;45.462;9.210;2024-03-06T11:45:17;4.82;;;3.83;;
40256;SDS011;25977;45.462;9.210;2024-03-06T11:47:56;5.35;;;4.57;;
40256;SDS011;25977;45.462;9.210;2024-03-06T11:50:26;6.15;;;4.10;;
40256;SDS011;25977;45.462;9.210;2024-03-06T11:52:53;3.95;;;3.63;;
40256;SDS011;25977;45.462;9.210;2024-03-06T11:55:23;5.18;;;3.90;;
40256;SDS011;25977;45.462;9.210;2024-03-06T11:57:50;3.50;;;3.30;;
40256;SDS011;25977;45.462;9.210;2024-03-06T12:02:49;6.13;;;3.45;;
40256;SDS011;25977;45.462;9.210;2024-03-06T12:05:17;3.88;;;3.53;;
40256;SDS011;25977;45.462;9.210;2024-03-06T12:10:11;5.65;;;2.97;;
40256;SDS011;25977;45.462;9.210;2024-03-06T12:12:37;2.72;;;2.53;;
40256;SDS011;25977;45.462;9.210;2024-03-06T12:15:03;7.70;;;3.28;;
40256;SDS011;25977;45.462;9.210;2024-03-06T12:17:31;3.42;;;2.92;;
40256;SDS011;25977;45.462;9.210;2024-03-06T12:19:57;4.28;;;2.20;;
40256;SDS011;25977;45.462;9.210;2024-03-06T12:22:24;2.28;;;1.95;;
40256;SDS011;25977;45.462;9.210;2024-03-06T12:24:58;4.45;;;2.03;;
40256;SDS011;25977;45.462;9.210;2024-03-06T12:27:26;1.42;;;1.33;;
40256;SDS011;25977;45.462;9.210;2024-03-06T12:29:52;3.33;;;2.00;;
40256;SDS011;25977;45.462;9.210;2024-03-06T12:32:18;5.90;;;2.35;;
40256;SDS011;25977;45.462;9.210;2024-03-06T12:34:44;3.95;;;1.80;;
40256;SDS011;25977;45.462;9.210;2024-03-06T12:37:20;1.77;;;1.65;;
40256;SDS011;25977;45.462;9.210;2024-03-06T12:39:56;4.00;;;1.70;;
40256;SDS011;25977;45.462;9.210;2024-03-06T12:42:21;3.40;;;2.00;;
40256;SDS011;25977;45.462;9.210;2024-03-06T12:44:49;6.47;;;1.48;;
40256;SDS011;25977;45.462;9.210;2024-03-06T12:47:15;1.27;;;1.20;;
40256;SDS011;25977;45.462;9.210;2024-03-06T12:49:41;7.03;;;1.75;;
40256;SDS011;25977;45.462;9.210;2024-03-06T12:52:06;1.65;;;1.55;;
40256;SDS011;25977;45.462;9.210;2024-03-06T12:54:34;2.78;;;1.63;;
40256;SDS011;25977;45.462;9.210;2024-03-06T12:57:00;2.63;;;1.50;;
40256;SDS011;25977;45.462;9.210;2024-03-06T12:59:26;1.30;;;1.20;;
40256;SDS011;25977;45.462;9.210;2024-03-06T13:01:51;2.50;;;1.20;;
40256;SDS011;25977;45.462;9.210;2024-03-06T13:04:17;1.15;;;1.08;;
40256;SDS011;25977;45.462;9.210;2024-03-06T13:06:43;2.00;;;1.25;;
40256;SDS011;25977;45.462;9.210;2024-03-06T13:09:10;1.35;;;1.25;;
40256;SDS011;25977;45.462;9.210;2024-03-06T13:11:36;1.52;;;1.13;;
40256;SDS011;25977;45.462;9.210;2024-03-06T13:14:01;2.55;;;1.15;;
40256;SDS011;25977;45.462;9.210;2024-03-06T13:16:27;0.30;;;0.30;;
40256;SDS011;25977;45.462;9.210;2024-03-06T13:18:57;0.50;;;0.50;;
40256;SDS011;25977;45.462;9.210;2024-03-06T13:21:25;0.57;;;0.57;;
40256;SDS011;25977;45.462;9.210;2024-03-06T13:23:51;0.70;;;0.70;;
40256;SDS011;25977;45.462;9.210;2024-03-06T13:26:16;0.45;;;0.45;;
40256;SDS011;25977;45.462;9.210;2024-03-06T13:28:43;1.15;;;1.05;;
40256;SDS011;25977;45.462;9.210;2024-03-06T13:31:08;0.55;;;0.55;;
40256;SDS011;25977;45.462;9.210;2024-03-06T13:33:34;3.40;;;0.88;;
40256;SDS011;25977;45.462;9.210;2024-03-06T13:36:00;3.80;;;0.77;;
40256;SDS011;25977;45.462;9.210;2024-03-06T13:38:25;0.77;;;0.55;;
40256;SDS011;25977;45.462;9.210;2024-03-06T13:40:51;0.32;;;0.30;;
40256;SDS011;25977;45.462;9.210;2024-03-06T13:43:17;4.13;;;1.00;;
40256;SDS011;25977;45.462;9.210;2024-03-06T13:45:50;1.08;;;0.57;;
40256;SDS011;25977;45.462;9.210;2024-03-06T13:48:16;0.80;;;0.40;;
40256;SDS011;25977;45.462;9.210;2024-03-06T13:50:44;0.50;;;0.50;;
40256;SDS011;25977;45.462;9.210;2024-03-06T13:53:10;1.33;;;0.43;;
40256;SDS011;25977;45.462;9.210;2024-03-06T13:55:36;2.45;;;0.70;;
40256;SDS011;25977;45.462;9.210;2024-03-06T13:58:02;0.45;;;0.45;;
40256;SDS011;25977;45.462;9.210;2024-03-06T14:00:29;0.80;;;0.80;;
40256;SDS011;25977;45.462;9.210;2024-03-06T14:02:55;0.95;;;0.35;;
40256;SDS011;25977;45.462;9.210;2024-03-06T14:05:21;0.70;;;0.60;;
40256;SDS011;25977;45.462;9.210;2024-03-06T14:07:53;2.20;;;0.82;;
40256;SDS011;25977;45.462;9.210;2024-03-06T14:10:19;0.95;;;0.57;;
40256;SDS011;25977;45.462;9.210;2024-03-06T14:12:46;2.65;;;0.60;;
40256;SDS011;25977;45.462;9.210;2024-03-06T14:15:12;0.70;;;0.63;;
40256;SDS011;25977;45.462;9.210;2024-03-06T14:17:39;3.38;;;1.00;;
40256;SDS011;25977;45.462;9.210;2024-03-06T14:20:05;0.82;;;0.60;;
40256;SDS011;25977;45.462;9.210;2024-03-06T14:22:31;9.98;;;0.90;;
40256;SDS011;25977;45.462;9.210;2024-03-06T14:24:57;0.70;;;0.70;;
40256;SDS011;25977;45.462;9.210;2024-03-06T14:27:23;1.10;;;0.60;;
40256;SDS011;25977;45.462;9.210;2024-03-06T14:29:48;2.88;;;0.73;;
40256;SDS011;25977;45.462;9.210;2024-03-06T14:32:16;0.65;;;0.63;;
40256;SDS011;25977;45.462;9.210;2024-03-06T14:34:44;2.75;;;1.02;;
40256;SDS011;25977;45.462;9.210;2024-03-06T14:37:10;1.55;;;1.20;;
40256;SDS011;25977;45.462;9.210;2024-03-06T14:39:35;2.90;;;1.20;;
40256;SDS011;25977;45.462;9.210;2024-03-06T14:42:01;1.85;;;1.10;;
40256;SDS011;25977;45.462;9.210;2024-03-06T14:44:29;1.95;;;0.77;;
40256;SDS011;25977;45.462;9.210;2024-03-06T14:46:55;1.77;;;1.20;;
40256;SDS011;25977;45.462;9.210;2024-03-06T14:49:21;1.15;;;0.70;;
40256;SDS011;25977;45.462;9.210;2024-03-06T14:51:47;1.25;;;0.90;;
40256;SDS011;25977;45.462;9.210;2024-03-06T14:54:13;0.77;;;0.73;;
40256;SDS011;25977;45.462;9.210;2024-03-06T14:56:39;1.20;;;0.70;;